DAL445 KSLC-KLAS
Flight info
| Callsign | DAL445 |
|---|---|
| Flight time | N/A |
| Altitude | 36000 |
| Route | KSLC/34R ARCHZ1 MLF DCT STEWW CHOWW4 KLAS/26L |
| Aircraft | A21N/M-SDG/C |
Departure
| Time | 2026-05-06 22:02 |
|---|---|
| Airport | Salt Lake City International Airport (KSLC) |
Arrival
| Time | N/A |
|---|---|
| Airport | Harry Reid International Airport (KLAS) |
| Time | Latitude | Longitude | Altitude | Speed | Heading |
|---|---|---|---|---|---|
| 2026-05-06 21:42 | 40.78550 | -111.98043 | 4230 ft | 0 kts | 355° |
| 2026-05-06 21:52 | 40.78536 | -111.98042 | 4230 ft | 2 kts | 355° |
| 2026-05-06 21:52 | 40.78521 | -111.98040 | 4230 ft | 2 kts | 355° |
| 2026-05-06 21:53 | 40.78505 | -111.98038 | 4230 ft | 2 kts | 355° |
| 2026-05-06 21:53 | 40.78492 | -111.98038 | 4230 ft | 1 kts | 32° |
| 2026-05-06 21:53 | 40.78485 | -111.98050 | 4230 ft | 0 kts | 81° |
| 2026-05-06 21:53 | 40.78485 | -111.98059 | 4230 ft | 1 kts | 85° |
| 2026-05-06 21:54 | 40.78485 | -111.98060 | 4230 ft | 0 kts | 84° |
| 2026-05-06 21:56 | 40.78485 | -111.98057 | 4230 ft | 1 kts | 82° |
| 2026-05-06 21:56 | 40.78488 | -111.98035 | 4230 ft | 3 kts | 82° |
| 2026-05-06 21:56 | 40.78490 | -111.97998 | 4230 ft | 6 kts | 85° |
| 2026-05-06 21:56 | 40.78495 | -111.97925 | 4230 ft | 8 kts | 85° |
| 2026-05-06 21:57 | 40.78502 | -111.97844 | 4230 ft | 9 kts | 82° |
| 2026-05-06 21:57 | 40.78514 | -111.97755 | 4230 ft | 10 kts | 76° |
| 2026-05-06 21:57 | 40.78512 | -111.97666 | 4230 ft | 10 kts | 143° |
| 2026-05-06 21:57 | 40.78443 | -111.97646 | 4230 ft | 10 kts | 175° |
| 2026-05-06 21:58 | 40.78372 | -111.97638 | 4231 ft | 10 kts | 175° |
| 2026-05-06 21:58 | 40.78305 | -111.97631 | 4231 ft | 9 kts | 175° |
| 2026-05-06 21:58 | 40.78239 | -111.97623 | 4231 ft | 9 kts | 173° |
| 2026-05-06 21:58 | 40.78174 | -111.97614 | 4232 ft | 9 kts | 174° |
| 2026-05-06 21:59 | 40.78112 | -111.97607 | 4232 ft | 9 kts | 175° |
| 2026-05-06 21:59 | 40.78028 | -111.97599 | 4232 ft | 14 kts | 176° |
| 2026-05-06 21:59 | 40.77935 | -111.97576 | 4232 ft | 13 kts | 153° |
| 2026-05-06 21:59 | 40.77852 | -111.97532 | 4233 ft | 12 kts | 169° |
| 2026-05-06 22:00 | 40.77768 | -111.97518 | 4233 ft | 11 kts | 179° |
| 2026-05-06 22:00 | 40.77689 | -111.97509 | 4233 ft | 11 kts | 174° |
| 2026-05-06 22:00 | 40.77615 | -111.97501 | 4233 ft | 10 kts | 176° |
| 2026-05-06 22:00 | 40.77562 | -111.97455 | 4233 ft | 10 kts | 116° |
| 2026-05-06 22:01 | 40.77564 | -111.97379 | 4233 ft | 7 kts | 80° |
| 2026-05-06 22:01 | 40.77602 | -111.97335 | 4233 ft | 18 kts | 6° |
| 2026-05-06 22:01 | 40.77981 | -111.97379 | 4232 ft | 88 kts | 356° |
| 2026-05-06 22:01 | 40.78809 | -111.97469 | 4231 ft | 148 kts | 353° |
| 2026-05-06 22:02 | 40.79998 | -111.97606 | 4366 ft | 184 kts | 351° |
| 2026-05-06 22:02 | 40.81279 | -111.97794 | 4930 ft | 188 kts | 341° |
| 2026-05-06 22:02 | 40.82364 | -111.98679 | 5549 ft | 188 kts | 306° |
| 2026-05-06 22:02 | 40.82777 | -112.00255 | 6211 ft | 186 kts | 271° |
| 2026-05-06 22:03 | 40.82406 | -112.01892 | 6629 ft | 196 kts | 238° |
| 2026-05-06 22:03 | 40.81332 | -112.03060 | 7001 ft | 211 kts | 206° |
| 2026-05-06 22:03 | 40.79913 | -112.03659 | 7444 ft | 217 kts | 203° |
| 2026-05-06 22:03 | 40.78775 | -112.04893 | 7771 ft | 217 kts | 246° |
| 2026-05-06 22:04 | 40.78448 | -112.06817 | 8107 ft | 222 kts | 266° |
| 2026-05-06 22:04 | 40.78247 | -112.08905 | 8393 ft | 238 kts | 265° |
| 2026-05-06 22:04 | 40.77894 | -112.11139 | 8626 ft | 260 kts | 262° |
| 2026-05-06 22:04 | 40.77539 | -112.13551 | 8946 ft | 277 kts | 264° |
| 2026-05-06 22:05 | 40.77214 | -112.16116 | 9365 ft | 290 kts | 265° |
| 2026-05-06 22:05 | 40.76852 | -112.18763 | 10043 ft | 295 kts | 263° |
| 2026-05-06 22:05 | 40.76421 | -112.21420 | 10647 ft | 302 kts | 262° |
| 2026-05-06 22:05 | 40.75860 | -112.24166 | 10965 ft | 322 kts | 251° |
| 2026-05-06 22:06 | 40.74491 | -112.26598 | 11455 ft | 341 kts | 223° |
| 2026-05-06 22:06 | 40.72397 | -112.28066 | 12115 ft | 349 kts | 197° |
| 2026-05-06 22:06 | 40.69997 | -112.28613 | 12748 ft | 353 kts | 188° |
| 2026-05-06 22:06 | 40.67611 | -112.29020 | 13290 ft | 359 kts | 188° |
| 2026-05-06 22:07 | 40.65124 | -112.29459 | 13909 ft | 363 kts | 189° |
| 2026-05-06 22:07 | 40.62625 | -112.29934 | 14552 ft | 365 kts | 189° |
| 2026-05-06 22:07 | 40.60104 | -112.30436 | 15155 ft | 369 kts | 190° |
| 2026-05-06 22:07 | 40.57566 | -112.30984 | 15732 ft | 372 kts | 192° |
| 2026-05-06 22:08 | 40.55031 | -112.31753 | 16296 ft | 375 kts | 197° |
| 2026-05-06 22:08 | 40.52527 | -112.32740 | 16870 ft | 379 kts | 199° |
| 2026-05-06 22:08 | 40.50005 | -112.33782 | 17412 ft | 382 kts | 200° |
| 2026-05-06 22:08 | 40.47456 | -112.34842 | 17933 ft | 386 kts | 200° |
| 2026-05-06 22:09 | 40.44888 | -112.35905 | 18434 ft | 390 kts | 199° |
| 2026-05-06 22:09 | 40.42291 | -112.36973 | 18949 ft | 393 kts | 199° |
| 2026-05-06 22:09 | 40.39673 | -112.38044 | 19434 ft | 397 kts | 199° |
| 2026-05-06 22:09 | 40.37027 | -112.39122 | 19902 ft | 401 kts | 199° |
| 2026-05-06 22:10 | 40.34358 | -112.40209 | 20360 ft | 404 kts | 199° |
| 2026-05-06 22:10 | 40.31666 | -112.41306 | 20825 ft | 407 kts | 199° |
| 2026-05-06 22:10 | 40.28947 | -112.42413 | 21246 ft | 412 kts | 199° |
| 2026-05-06 22:10 | 40.26203 | -112.43528 | 21667 ft | 416 kts | 199° |
| 2026-05-06 22:11 | 40.23432 | -112.44656 | 22102 ft | 419 kts | 199° |
| 2026-05-06 22:11 | 40.20649 | -112.45803 | 22539 ft | 422 kts | 201° |
| 2026-05-06 22:11 | 40.17904 | -112.47167 | 22956 ft | 424 kts | 205° |
| 2026-05-06 22:11 | 40.15243 | -112.48820 | 23375 ft | 425 kts | 210° |
| 2026-05-06 22:12 | 40.12629 | -112.50647 | 23791 ft | 428 kts | 212° |
| 2026-05-06 22:12 | 40.10009 | -112.52514 | 24191 ft | 431 kts | 212° |
| 2026-05-06 22:12 | 40.07374 | -112.54390 | 24605 ft | 434 kts | 212° |
| 2026-05-06 22:12 | 40.04720 | -112.56272 | 25023 ft | 436 kts | 211° |
| 2026-05-06 22:13 | 40.02054 | -112.58152 | 25430 ft | 438 kts | 211° |
| 2026-05-06 22:13 | 39.99365 | -112.60040 | 25822 ft | 440 kts | 211° |
| 2026-05-06 22:13 | 39.96665 | -112.61935 | 26208 ft | 442 kts | 211° |
| 2026-05-06 22:13 | 39.93951 | -112.63835 | 26566 ft | 445 kts | 211° |
| 2026-05-06 22:14 | 39.91204 | -112.65759 | 26940 ft | 447 kts | 211° |
| 2026-05-06 22:14 | 39.88453 | -112.67683 | 27295 ft | 449 kts | 211° |
| 2026-05-06 22:14 | 39.85685 | -112.69617 | 27617 ft | 451 kts | 211° |
| 2026-05-06 22:14 | 39.82915 | -112.71550 | 27931 ft | 454 kts | 211° |
| 2026-05-06 22:15 | 39.80136 | -112.73486 | 28259 ft | 456 kts | 211° |
| 2026-05-06 22:15 | 39.77339 | -112.75434 | 28575 ft | 458 kts | 211° |
| 2026-05-06 22:15 | 39.74528 | -112.77390 | 28893 ft | 460 kts | 211° |
| 2026-05-06 22:15 | 39.71696 | -112.79338 | 29200 ft | 462 kts | 208° |
| 2026-05-06 22:16 | 39.68732 | -112.80984 | 29491 ft | 467 kts | 201° |
| 2026-05-06 22:16 | 39.65612 | -112.82175 | 29797 ft | 470 kts | 194° |
| 2026-05-06 22:16 | 39.62390 | -112.82889 | 30104 ft | 472 kts | 187° |
| 2026-05-06 22:16 | 39.59129 | -112.83378 | 30398 ft | 474 kts | 186° |
| 2026-05-06 22:17 | 39.55845 | -112.83823 | 30685 ft | 476 kts | 186° |
| 2026-05-06 22:17 | 39.52565 | -112.84271 | 31100 ft | 474 kts | 186° |
| 2026-05-06 22:17 | 39.49288 | -112.84735 | 31448 ft | 475 kts | 186° |
| 2026-05-06 22:17 | 39.46006 | -112.85211 | 31717 ft | 477 kts | 186° |
| 2026-05-06 22:18 | 39.42708 | -112.85698 | 31986 ft | 479 kts | 186° |
| 2026-05-06 22:18 | 39.39390 | -112.86191 | 32248 ft | 481 kts | 186° |
| 2026-05-06 22:18 | 39.36071 | -112.86685 | 32509 ft | 483 kts | 186° |
| 2026-05-06 22:18 | 39.32733 | -112.87180 | 32768 ft | 485 kts | 187° |
| 2026-05-06 22:19 | 39.29379 | -112.87677 | 33010 ft | 487 kts | 186° |
| 2026-05-06 22:19 | 39.26015 | -112.88176 | 33260 ft | 489 kts | 187° |
| 2026-05-06 22:19 | 39.22638 | -112.88675 | 33506 ft | 490 kts | 187° |
| 2026-05-06 22:19 | 39.19249 | -112.89176 | 33753 ft | 492 kts | 187° |
| 2026-05-06 22:20 | 39.15845 | -112.89681 | 33981 ft | 494 kts | 187° |
| 2026-05-06 22:20 | 39.12421 | -112.90187 | 34275 ft | 494 kts | 187° |
| 2026-05-06 22:20 | 39.09008 | -112.90692 | 34625 ft | 494 kts | 187° |
| 2026-05-06 22:20 | 39.05599 | -112.91194 | 34907 ft | 494 kts | 186° |
| 2026-05-06 22:21 | 39.02179 | -112.91698 | 35149 ft | 496 kts | 186° |
| 2026-05-06 22:21 | 38.98751 | -112.92201 | 35386 ft | 497 kts | 186° |
| 2026-05-06 22:21 | 38.95309 | -112.92707 | 35621 ft | 499 kts | 186° |
| 2026-05-06 22:21 | 38.91867 | -112.93211 | 35870 ft | 499 kts | 186° |
| 2026-05-06 22:22 | 38.88396 | -112.93718 | 36113 ft | 499 kts | 186° |
| 2026-05-06 22:22 | 38.84931 | -112.94227 | 36214 ft | 500 kts | 186° |
| 2026-05-06 22:22 | 38.78021 | -112.95236 | 36229 ft | 500 kts | 186° |
| 2026-05-06 22:23 | 38.71106 | -112.96245 | 36232 ft | 501 kts | 186° |
| 2026-05-06 22:23 | 38.64190 | -112.97252 | 36232 ft | 501 kts | 186° |
| 2026-05-06 22:24 | 38.57266 | -112.98258 | 36227 ft | 501 kts | 186° |
| 2026-05-06 22:24 | 38.50345 | -112.99262 | 36216 ft | 501 kts | 186° |
| 2026-05-06 22:25 | 38.43425 | -113.00263 | 36214 ft | 502 kts | 186° |
| 2026-05-06 22:25 | 38.36542 | -113.01681 | 36211 ft | 501 kts | 193° |
| 2026-05-06 22:26 | 38.29849 | -113.04184 | 36218 ft | 501 kts | 201° |
| 2026-05-06 22:26 | 38.23327 | -113.07308 | 36224 ft | 501 kts | 202° |
| 2026-05-06 22:27 | 38.16820 | -113.10430 | 36228 ft | 500 kts | 201° |
| 2026-05-06 22:27 | 38.10288 | -113.13533 | 36231 ft | 501 kts | 201° |
| 2026-05-06 22:28 | 38.03772 | -113.16613 | 36235 ft | 500 kts | 201° |
| 2026-05-06 22:28 | 37.97255 | -113.19685 | 36236 ft | 501 kts | 201° |
| 2026-05-06 22:29 | 37.90729 | -113.22755 | 36226 ft | 501 kts | 201° |
| 2026-05-06 22:29 | 37.84178 | -113.25830 | 36228 ft | 500 kts | 201° |
| 2026-05-06 22:30 | 37.77660 | -113.28885 | 36218 ft | 500 kts | 201° |
| 2026-05-06 22:30 | 37.71146 | -113.31931 | 36219 ft | 500 kts | 201° |
| 2026-05-06 22:31 | 37.64626 | -113.34977 | 36214 ft | 500 kts | 201° |
| 2026-05-06 22:31 | 37.58100 | -113.38017 | 36212 ft | 500 kts | 201° |
| 2026-05-06 22:32 | 37.51582 | -113.41048 | 36183 ft | 498 kts | 201° |
| 2026-05-06 22:32 | 37.48332 | -113.42558 | 35691 ft | 499 kts | 201° |
| 2026-05-06 22:32 | 37.45079 | -113.44068 | 34783 ft | 503 kts | 201° |
| 2026-05-06 22:33 | 37.41768 | -113.45601 | 33564 ft | 514 kts | 201° |
| 2026-05-06 22:33 | 37.38395 | -113.47165 | 32406 ft | 522 kts | 200° |
| 2026-05-06 22:33 | 37.34982 | -113.48751 | 31447 ft | 524 kts | 201° |
| 2026-05-06 22:33 | 37.31710 | -113.50715 | 30514 ft | 523 kts | 212° |
| 2026-05-06 22:34 | 37.28629 | -113.53102 | 29663 ft | 522 kts | 214° |
| 2026-05-06 22:34 | 37.25596 | -113.55566 | 28712 ft | 522 kts | 214° |
| 2026-05-06 22:34 | 37.22558 | -113.58045 | 27681 ft | 524 kts | 214° |
| 2026-05-06 22:34 | 37.19504 | -113.60517 | 26627 ft | 525 kts | 214° |
| 2026-05-06 22:35 | 37.16437 | -113.62973 | 25561 ft | 526 kts | 214° |
| 2026-05-06 22:35 | 37.13360 | -113.65421 | 24423 ft | 527 kts | 213° |
| 2026-05-06 22:35 | 37.10272 | -113.67862 | 23642 ft | 519 kts | 213° |
| 2026-05-06 22:35 | 37.07268 | -113.70226 | 23357 ft | 502 kts | 212° |
| 2026-05-06 22:36 | 37.04359 | -113.72511 | 23099 ft | 487 kts | 213° |
| 2026-05-06 22:36 | 37.01527 | -113.74732 | 22856 ft | 472 kts | 213° |
| 2026-05-06 22:36 | 36.98788 | -113.76880 | 22617 ft | 459 kts | 212° |
| 2026-05-06 22:36 | 36.96116 | -113.78972 | 22249 ft | 450 kts | 213° |
| 2026-05-06 22:37 | 36.93477 | -113.81039 | 21698 ft | 446 kts | 213° |
| 2026-05-06 22:37 | 36.90864 | -113.83084 | 21139 ft | 442 kts | 213° |
| 2026-05-06 22:37 | 36.88256 | -113.85126 | 20580 ft | 438 kts | 213° |
| 2026-05-06 22:37 | 36.85676 | -113.87141 | 19988 ft | 436 kts | 213° |
| 2026-05-06 22:38 | 36.83110 | -113.89144 | 19394 ft | 433 kts | 213° |
| 2026-05-06 22:38 | 36.80568 | -113.91127 | 18800 ft | 431 kts | 213° |
| 2026-05-06 22:38 | 36.78039 | -113.93097 | 18247 ft | 428 kts | 213° |
| 2026-05-06 22:38 | 36.75530 | -113.95054 | 17684 ft | 425 kts | 213° |
| 2026-05-06 22:39 | 36.73038 | -113.96991 | 17149 ft | 421 kts | 213° |
| 2026-05-06 22:39 | 36.70563 | -113.98915 | 16647 ft | 417 kts | 213° |
| 2026-05-06 22:39 | 36.68111 | -114.00821 | 16184 ft | 412 kts | 213° |
| 2026-05-06 22:39 | 36.65689 | -114.02703 | 16006 ft | 409 kts | 213° |
| 2026-05-06 22:40 | 36.63269 | -114.04580 | 16007 ft | 410 kts | 213° |
| 2026-05-06 22:40 | 36.60850 | -114.06459 | 16011 ft | 410 kts | 213° |
| 2026-05-06 22:40 | 36.58428 | -114.08334 | 16010 ft | 409 kts | 213° |
| 2026-05-06 22:40 | 36.56008 | -114.10208 | 16008 ft | 409 kts | 213° |
| 2026-05-06 22:41 | 36.51175 | -114.13946 | 16009 ft | 409 kts | 213° |
| 2026-05-06 22:41 | 36.48758 | -114.15813 | 16004 ft | 409 kts | 212° |
| 2026-05-06 22:41 | 36.46341 | -114.17679 | 15998 ft | 410 kts | 213° |
| 2026-05-06 22:42 | 36.43954 | -114.19518 | 15866 ft | 399 kts | 213° |
| 2026-05-06 22:42 | 36.41614 | -114.21320 | 15501 ft | 392 kts | 213° |
| 2026-05-06 22:42 | 36.39449 | -114.23301 | 15223 ft | 381 kts | 224° |
| 2026-05-06 22:42 | 36.37671 | -114.25679 | 14906 ft | 372 kts | 233° |
| 2026-05-06 22:43 | 36.36095 | -114.28160 | 14482 ft | 362 kts | 234° |
| 2026-05-06 22:43 | 36.34589 | -114.30600 | 14000 ft | 352 kts | 235° |
| 2026-05-06 22:43 | 36.33121 | -114.32963 | 13573 ft | 341 kts | 234° |
| 2026-05-06 22:43 | 36.31693 | -114.35230 | 13248 ft | 328 kts | 234° |
| 2026-05-06 22:44 | 36.30296 | -114.37435 | 12911 ft | 325 kts | 234° |
| 2026-05-06 22:44 | 36.28901 | -114.39628 | 12558 ft | 324 kts | 234° |
| 2026-05-06 22:44 | 36.27511 | -114.41805 | 12195 ft | 322 kts | 234° |
| 2026-05-06 22:44 | 36.26127 | -114.43968 | 11838 ft | 320 kts | 234° |
| 2026-05-06 22:45 | 36.24746 | -114.46116 | 11480 ft | 318 kts | 233° |
| 2026-05-06 22:45 | 36.23365 | -114.48235 | 11111 ft | 315 kts | 233° |
| 2026-05-06 22:45 | 36.21992 | -114.50334 | 10750 ft | 313 kts | 233° |
| 2026-05-06 22:45 | 36.20628 | -114.52422 | 10394 ft | 311 kts | 233° |
| 2026-05-06 22:46 | 36.19276 | -114.54493 | 10073 ft | 307 kts | 233° |
| 2026-05-06 22:46 | 36.17944 | -114.56532 | 10010 ft | 305 kts | 233° |
| 2026-05-06 22:46 | 36.16609 | -114.58574 | 9994 ft | 304 kts | 233° |
| 2026-05-06 22:46 | 36.15287 | -114.60594 | 9723 ft | 301 kts | 233° |
| 2026-05-06 22:47 | 36.13972 | -114.62606 | 9296 ft | 302 kts | 233° |
| 2026-05-06 22:47 | 36.12658 | -114.64615 | 8917 ft | 300 kts | 233° |
| 2026-05-06 22:47 | 36.11337 | -114.66631 | 8566 ft | 297 kts | 232° |
| 2026-05-06 22:47 | 36.10040 | -114.68607 | 8271 ft | 293 kts | 232° |
| 2026-05-06 22:48 | 36.08776 | -114.70532 | 8129 ft | 282 kts | 232° |
| 2026-05-06 22:48 | 36.07640 | -114.72435 | 8001 ft | 269 kts | 246° |
| 2026-05-06 22:48 | 36.07213 | -114.74595 | 7783 ft | 258 kts | 271° |
| 2026-05-06 22:48 | 36.07241 | -114.76805 | 7455 ft | 257 kts | 274° |
| 2026-05-06 22:49 | 36.07292 | -114.79005 | 7132 ft | 256 kts | 274° |
| 2026-05-06 22:49 | 36.07329 | -114.81202 | 6815 ft | 256 kts | 273° |
| 2026-05-06 22:49 | 36.07358 | -114.83392 | 6499 ft | 256 kts | 273° |
| 2026-05-06 22:49 | 36.07401 | -114.85589 | 6159 ft | 256 kts | 273° |
| 2026-05-06 22:50 | 36.07424 | -114.87799 | 5812 ft | 257 kts | 272° |
| 2026-05-06 22:50 | 36.07426 | -114.90010 | 5462 ft | 257 kts | 271° |
| 2026-05-06 22:50 | 36.07417 | -114.92181 | 5109 ft | 249 kts | 271° |
| 2026-05-06 22:50 | 36.07406 | -114.94294 | 4763 ft | 240 kts | 271° |
| 2026-05-06 22:51 | 36.07398 | -114.96316 | 4480 ft | 232 kts | 271° |
| 2026-05-06 22:51 | 36.07391 | -114.98238 | 4273 ft | 216 kts | 271° |
| 2026-05-06 22:51 | 36.07386 | -115.00028 | 3966 ft | 202 kts | 271° |
| 2026-05-06 22:51 | 36.07382 | -115.01713 | 3687 ft | 190 kts | 271° |
| 2026-05-06 22:52 | 36.07377 | -115.03297 | 3427 ft | 179 kts | 270° |
| 2026-05-06 22:52 | 36.07376 | -115.04790 | 3274 ft | 171 kts | 271° |
| 2026-05-06 22:52 | 36.07378 | -115.06259 | 3085 ft | 171 kts | 271° |
| 2026-05-06 22:52 | 36.07388 | -115.07710 | 2920 ft | 166 kts | 270° |
| 2026-05-06 22:53 | 36.07365 | -115.09128 | 2694 ft | 164 kts | 268° |
| 2026-05-06 22:53 | 36.07360 | -115.10528 | 2438 ft | 162 kts | 271° |
| 2026-05-06 22:53 | 36.07367 | -115.11918 | 2224 ft | 161 kts | 270° |
| 2026-05-06 22:53 | 36.07367 | -115.13291 | 2105 ft | 158 kts | 270° |
| 2026-05-06 22:54 | 36.07366 | -115.14655 | 2123 ft | 158 kts | 270° |
| 2026-05-06 22:54 | 36.07370 | -115.16040 | 2511 ft | 166 kts | 271° |
| 2026-05-06 22:54 | 36.07382 | -115.17484 | 3120 ft | 172 kts | 270° |
| 2026-05-06 22:54 | 36.07363 | -115.18970 | 3810 ft | 176 kts | 269° |
| 2026-05-06 22:55 | 36.07316 | -115.20430 | 4354 ft | 171 kts | 268° |
| 2026-05-06 22:55 | 36.07252 | -115.21921 | 4680 ft | 180 kts | 270° |
| 2026-05-06 22:55 | 36.07057 | -115.23506 | 4940 ft | 194 kts | 248° |
| 2026-05-06 22:55 | 36.06145 | -115.24804 | 5160 ft | 209 kts | 223° |
| 2026-05-06 22:56 | 36.05541 | -115.26368 | 5576 ft | 207 kts | 269° |
| 2026-05-06 22:56 | 36.06064 | -115.27941 | 5989 ft | 202 kts | 317° |
| 2026-05-06 22:56 | 36.07323 | -115.28525 | 6399 ft | 199 kts | 0° |
| 2026-05-06 22:56 | 36.08594 | -115.27815 | 6565 ft | 213 kts | 43° |
| 2026-05-06 22:57 | 36.09347 | -115.26097 | 6335 ft | 241 kts | 73° |
| 2026-05-06 22:57 | 36.09786 | -115.24093 | 6237 ft | 240 kts | 65° |
| 2026-05-06 22:57 | 36.10785 | -115.22493 | 6009 ft | 238 kts | 33° |
| 2026-05-06 22:57 | 36.12306 | -115.21683 | 6023 ft | 241 kts | 27° |
| 2026-05-06 22:58 | 36.13442 | -115.20202 | 6038 ft | 245 kts | 69° |
| 2026-05-06 22:58 | 36.13480 | -115.18118 | 6057 ft | 251 kts | 106° |
| 2026-05-06 22:58 | 36.12724 | -115.16176 | 6046 ft | 252 kts | 117° |
| 2026-05-06 22:58 | 36.11875 | -115.14271 | 6018 ft | 251 kts | 118° |
| 2026-05-06 22:59 | 36.11021 | -115.12388 | 6001 ft | 250 kts | 116° |
| 2026-05-06 22:59 | 36.10194 | -115.10499 | 5994 ft | 251 kts | 116° |
| 2026-05-06 22:59 | 36.09315 | -115.08471 | 6006 ft | 285 kts | 116° |
| 2026-05-06 22:59 | 36.08393 | -115.06141 | 6011 ft | 316 kts | 107° |
| 2026-05-06 23:00 | 36.08152 | -115.03400 | 6307 ft | 319 kts | 84° |
| 2026-05-06 23:00 | 36.08638 | -115.00732 | 6161 ft | 318 kts | 71° |
| 2026-05-06 23:00 | 36.09459 | -114.98276 | 5912 ft | 300 kts | 63° |
| 2026-05-06 23:00 | 36.10382 | -114.96053 | 5581 ft | 282 kts | 61° |
| 2026-05-06 23:01 | 36.11274 | -114.93981 | 5283 ft | 265 kts | 61° |
| 2026-05-06 23:01 | 36.12113 | -114.92030 | 5021 ft | 252 kts | 64° |
| 2026-05-06 23:01 | 36.12540 | -114.89939 | 4986 ft | 254 kts | 85° |
| 2026-05-06 23:01 | 36.12555 | -114.87755 | 4983 ft | 249 kts | 90° |
| 2026-05-06 23:02 | 36.12505 | -114.85770 | 4986 ft | 242 kts | 90° |
| 2026-05-06 23:02 | 36.12471 | -114.84659 | 4986 ft | 242 kts | 91° |
| 2026-05-06 23:02 | 36.12423 | -114.83233 | 4989 ft | 241 kts | 91° |
| 2026-05-06 23:02 | 36.12358 | -114.81281 | 4989 ft | 241 kts | 91° |
| 2026-05-06 23:03 | 36.12157 | -114.79230 | 4975 ft | 243 kts | 108° |
| 2026-05-06 23:03 | 36.11227 | -114.77495 | 4974 ft | 247 kts | 138° |
| 2026-05-06 23:03 | 36.10200 | -114.76731 | 4973 ft | 249 kts | 159° |
| 2026-05-06 23:03 | 36.08481 | -114.76527 | 4974 ft | 251 kts | 190° |
| 2026-05-06 23:04 | 36.06897 | -114.77411 | 4976 ft | 253 kts | 221° |
| 2026-05-06 23:04 | 36.05873 | -114.79150 | 4980 ft | 252 kts | 251° |
| 2026-05-06 23:04 | 36.05567 | -114.81263 | 4991 ft | 251 kts | 267° |
| 2026-05-06 23:04 | 36.05508 | -114.83415 | 4990 ft | 251 kts | 272° |
| 2026-05-06 23:05 | 36.05801 | -114.85512 | 4988 ft | 249 kts | 289° |
| 2026-05-06 23:05 | 36.06349 | -114.87533 | 4991 ft | 248 kts | 290° |
| 2026-05-06 23:05 | 36.06918 | -114.89541 | 4994 ft | 248 kts | 290° |
| 2026-05-06 23:05 | 36.07338 | -114.91606 | 4989 ft | 248 kts | 277° |
| 2026-05-06 23:06 | 36.07430 | -114.93703 | 4846 ft | 241 kts | 271° |
| 2026-05-06 23:06 | 36.07427 | -114.95014 | 4664 ft | 240 kts | 270° |
| 2026-05-06 23:06 | 36.07400 | -114.97059 | 4368 ft | 239 kts | 270° |
| 2026-05-06 23:07 | 36.07382 | -114.99106 | 4071 ft | 238 kts | 270° |
| 2026-05-06 23:07 | 36.07376 | -115.01116 | 3846 ft | 226 kts | 270° |
| 2026-05-06 23:07 | 36.07375 | -115.02972 | 3600 ft | 208 kts | 271° |
| 2026-05-06 23:07 | 36.07374 | -115.04704 | 3293 ft | 196 kts | 270° |